Date,TemperatureHighF,TemperatureAvgF,TemperatureLowF,DewpointHighF,DewpointAvgF,DewpointLowF,HumidityHigh,HumidityAvg,HumidityLow,PressureMaxIn,PressureMinIn,WindSpeedMaxMPH,WindSpeedAvgMPH,GustSpeedMaxMPH,PrecipitationSumIn
2012-1-6,34.7,32.7,32.2,28.2,26.7,26.3,81,78,77,30.07,30.06,1,0,2,0.00
2012-1-7,43.2,33.4,29.7,34.0,27.8,24.7,89,80,62,30.32,30.06,4,1,6,0.00
2012-1-8,48.9,34.7,28.2,37.4,31.1,27.2,96,87,62,30.33,30.26,5,1,8,0.01
2012-1-9,45.7,34.6,25.9,34.7,30.3,25.2,98,85,64,30.28,29.97,8,2,10,0.00
2012-1-10,43.0,33.8,23.2,35.0,30.1,18.3,97,86,66,30.38,29.98,6,2,11,0.29
2012-1-11,37.9,25.7,19.0,26.0,20.3,15.5,93,81,59,30.47,30.31,6,1,7,0.00
2012-1-12,40.5,27.2,16.7,24.5,20.4,15.3,94,77,52,30.39,30.22,6,2,8,0.00
2012-1-13,43.9,29.2,18.1,26.0,22.1,16.5,94,77,48,30.25,29.98,5,1,8,0.00
2012-1-14,41.9,32.2,28.4,31.9,26.9,24.2,87,81,65,29.98,29.66,10,2,20,0.00
2012-1-15,45.9,28.4,21.4,30.8,21.8,17.3,92,78,45,29.86,29.81,4,1,8,0.06
2012-1-16,42.3,27.9,22.5,32.7,20.4,15.7,94,75,42,29.98,29.82,7,1,8,0.09
2012-1-17,35.2,29.6,24.1,29.5,23.9,19.3,96,80,56,29.94,29.70,13,2,18,0.03
2012-1-18,29.8,27.3,24.8,28.0,26.1,23.8,97,95,92,29.82,29.55,2,0,4,0.00
2012-1-19,35.8,30.9,24.3,34.5,30.1,22.9,98,97,94,29.71,29.42,0,0,1,0.33
2012-1-20,39.2,31.1,23.9,35.7,30.0,22.9,99,96,84,29.77,29.27,3,0,6,0.31
2012-1-21,50.4,37.2,33.3,37.7,31.9,24.3,99,82,47,29.78,29.19,12,2,17,0.39
2012-1-22,46.8,35.1,25.0,31.9,26.6,21.4,88,72,53,29.87,29.67,6,2,11,0.00
2012-1-23,55.6,37.0,31.3,41.3,29.5,23.8,96,77,34,29.95,29.70,5,1,8,0.17
2012-1-24,31.3,31.3,31.3,24.6,24.6,24.6,76,76,76,29.94,29.94,0,0,1,0.00
2012-1-25,31.3,31.3,31.3,24.6,24.6,24.6,76,76,76,29.94,29.94,0,0,1,0.00
2012-1-26,31.3,31.3,31.3,24.6,24.6,24.6,76,76,76,29.94,29.94,0,0,1,0.00
2012-1-27,31.3,31.3,31.3,24.6,24.6,24.6,76,76,76,29.94,29.94,0,0,1,0.00
2012-1-28,31.3,20.5,0.0,24.6,24.6,24.6,76,50,76,30.27,29.94,0,0,1,0.13
2012-1-29,0.0,0.0,0.0,24.6,24.6,24.6,0,0,100,30.21,30.21,0,0,0,0.00
2012-1-30,0.0,0.0,0.0,24.6,24.6,24.6,0,0,100,30.21,30.21,0,0,0,0.00
2012-1-31,52.3,8.1,0.0,38.0,26.5,24.6,82,12,57,30.21,29.90,4,0,5,0.13
2012-2-1,41.5,35.8,32.2,35.5,33.8,31.2,97,92,77,30.14,29.82,3,1,6,0.22
2012-2-2,53.6,37.8,26.8,41.7,30.2,25.3,96,77,40,30.29,30.14,6,2,7,0.00
2012-2-3,53.4,34.9,26.1,33.3,28.8,25.1,97,81,46,30.24,30.13,6,2,8,0.00
2012-2-4,54.0,35.1,25.0,33.5,27.5,23.8,96,77,41,30.25,30.11,6,2,9,0.02
2012-2-5,54.3,34.4,23.9,34.9,26.6,22.9,97,76,39,30.20,30.08,7,2,11,0.00
2012-2-6,55.8,31.1,23.5,29.9,26.0,22.0,96,84,36,30.09,29.96,5,1,7,0.00
2012-2-7,57.4,37.9,27.9,31.0,25.7,21.8,85,65,29,29.99,29.86,6,2,8,0.00
2012-2-8,41.4,34.4,27.1,30.1,27.3,22.4,88,76,60,30.17,29.94,5,1,7,0.00
2012-2-9,44.8,38.9,33.6,38.1,35.5,29.9,96,88,76,30.19,30.03,4,1,7,0.03
2012-2-10,60.1,41.6,34.5,44.0,37.4,33.0,98,86,52,30.03,29.87,4,2,6,0.00
2012-2-11,38.8,36.5,34.3,37.6,35.4,33.1,97,96,93,29.92,29.86,5,1,8,0.11
2012-2-12,48.9,37.4,31.1,40.6,35.2,30.1,98,92,70,29.91,29.69,6,1,8,0.05
2012-2-13,38.1,34.7,30.9,34.1,32.5,30.2,97,92,85,29.80,29.70,5,1,9,0.01
2012-2-14,46.8,35.5,31.6,37.6,33.1,30.6,97,91,67,29.86,29.69,7,1,9,0.01
2012-2-15,41.4,32.7,25.0,33.6,28.3,22.8,96,84,64,30.19,29.86,5,2,8,0.12
2012-2-16,37.6,30.0,22.8,32.3,27.1,21.6,97,89,72,30.20,30.05,7,1,11,0.05
2012-2-17,49.5,37.0,32.2,41.4,34.7,31.4,98,92,72,30.11,29.74,6,1,8,0.06
2012-2-18,51.1,38.0,32.4,40.0,32.6,28.1,99,82,56,29.88,29.74,8,2,12,0.28
2012-2-19,49.6,35.1,28.4,38.2,31.4,26.9,96,87,60,29.85,29.78,3,1,6,0.46
2012-2-20,39.2,32.8,27.3,33.8,30.7,26.1,97,92,77,29.87,29.75,3,1,5,0.09
2012-2-21,41.4,36.1,32.0,41.1,35.4,31.3,99,97,94,29.86,29.73,2,0,3,0.77
2012-2-22,52.7,43.3,36.1,45.4,33.7,21.2,99,73,34,29.94,29.62,23,6,33,0.45
2012-2-23,47.5,37.3,29.3,30.1,26.8,-22.2,81,67,48,30.10,29.94,9,3,12,0.00
2012-2-24,55.4,38.7,27.9,34.7,27.5,23.5,91,67,36,30.09,29.45,7,2,11,0.01
2012-2-25,38.7,34.4,30.9,36.4,31.4,25.3,97,89,63,29.92,29.43,10,2,17,0.31
2012-2-26,39.6,31.5,26.4,31.7,28.3,25.2,96,88,61,29.96,29.89,6,1,8,0.06
2012-2-27,43.7,28.9,23.0,31.4,25.2,21.4,96,86,61,29.94,29.81,7,1,11,0.06
2012-2-28,45.3,32.5,25.7,28.5,25.8,23.2,91,78,48,29.81,29.50,6,1,11,0.00
2012-2-29,48.0,36.0,30.9,36.5,28.1,21.6,95,75,40,29.63,29.43,10,2,15,0.09
2012-3-1,43.7,33.1,27.1,38.1,28.0,24.3,95,82,57,30.03,29.61,9,2,16,0.08
2012-3-2,43.9,33.5,25.5,32.6,28.5,24.3,96,83,58,30.16,30.03,4,1,6,0.01
2012-3-3,45.0,37.5,32.2,39.1,35.0,30.7,97,91,78,30.13,30.08,5,1,8,0.02
2012-3-4,62.4,42.3,29.7,42.6,35.3,29.2,99,80,41,30.13,29.81,6,2,10,0.01
2012-3-5,49.5,40.7,34.3,40.4,35.3,23.8,96,82,57,29.82,29.47,13,3,19,0.22
2012-3-6,43.0,32.4,25.3,27.0,19.8,13.0,76,61,38,29.99,29.59,10,3,17,0.00
2012-3-7,50.9,33.5,20.3,24.9,20.3,14.7,85,61,33,30.31,29.99,8,2,14,0.00
2012-3-8,62.1,40.5,25.5,33.2,27.6,21.8,90,65,31,30.33,30.14,11,3,12,0.00
2012-3-9,77.0,46.2,27.9,38.1,31.6,26.4,95,64,22,30.16,29.80,7,2,10,0.00
2012-3-10,67.5,50.7,34.0,37.8,32.7,28.8,84,54,29,29.81,29.54,8,3,13,0.00
2012-3-11,43.7,37.8,33.3,38.9,34.2,30.7,97,87,70,29.69,29.41,6,1,10,0.37
2012-3-12,46.0,36.3,28.2,37.0,32.0,26.6,95,85,68,29.72,29.34,5,1,8,0.01
2012-3-13,50.2,38.9,32.5,39.2,34.0,30.2,95,84,61,29.75,29.25,14,2,19,0.45
2012-3-14,33.8,32.9,32.2,32.5,31.6,30.8,96,95,94,29.75,29.74,2,1,3,0.00
2012-3-21,39.4,37.0,35.1,36.7,35.7,34.5,98,95,89,29.75,29.61,2,0,3,0.56
2012-3-22,49.5,38.0,33.3,39.1,34.3,31.4,99,88,58,29.88,29.52,11,2,24,0.15
2012-3-23,41.9,36.0,32.0,38.4,34.4,31.3,98,94,83,29.99,29.71,7,1,10,0.21
2012-3-24,52.9,41.5,33.4,42.6,36.6,32.6,98,84,60,29.96,29.71,6,2,8,0.00
2012-3-25,63.9,47.4,35.6,46.4,41.1,34.6,97,81,51,29.73,29.45,10,3,14,0.17
2012-3-26,53.6,42.4,35.8,44.7,40.0,34.8,98,91,69,29.74,29.47,6,2,12,0.58
2012-3-27,68.7,47.1,32.2,46.7,36.7,31.7,99,73,31,29.78,29.54,10,3,14,0.00
2012-3-28,55.9,43.6,36.3,44.0,39.7,35.4,97,87,61,29.79,29.53,9,2,14,0.38
2012-3-29,40.6,36.5,34.9,39.2,35.7,34.1,98,97,96,29.75,29.71,3,1,4,0.01
2012-3-30,55.2,42.9,39.7,49.3,41.4,39.0,97,94,80,29.63,29.45,9,2,14,0.56
2012-3-31,75.4,45.1,36.1,53.2,39.6,30.7,99,85,24,29.60,29.19,20,4,29,0.33
2012-4-1,53.8,40.6,33.4,37.8,31.9,20.5,98,75,32,30.01,29.45,11,3,18,0.11
2012-4-2,59.5,44.0,32.9,39.1,31.4,26.9,93,66,32,30.17,29.96,9,2,13,0.00
2012-4-3,68.2,45.5,28.8,39.5,32.5,26.8,95,66,25,29.97,29.60,10,2,15,0.00
2012-4-4,45.0,38.2,32.5,38.6,33.8,30.9,96,85,69,29.88,29.60,9,2,12,0.38
2012-4-5,53.1,37.8,30.9,36.2,32.5,28.8,97,83,49,29.91,29.85,8,2,11,0.01
2012-4-6,51.3,36.6,29.5,38.3,32.2,28.5,97,85,57,30.12,29.86,6,2,12,0.00
2012-4-7,61.9,42.7,27.3,34.8,28.9,19.9,97,65,25,30.17,30.04,9,3,11,0.00
2012-4-8,71.2,48.9,30.9,36.2,30.7,26.5,85,56,24,30.11,29.88,6,2,9,0.00
2012-4-9,72.0,54.7,38.5,44.9,37.3,31.4,76,55,32,29.89,29.74,6,2,9,0.06
2012-4-10,77.9,54.7,41.2,43.7,37.4,29.5,81,57,24,29.75,29.52,6,2,9,0.00
2012-4-11,73.8,53.7,39.0,48.1,40.9,34.6,88,66,35,29.56,29.33,12,3,20,0.05
2012-4-12,65.7,50.5,37.0,48.8,40.2,30.9,98,74,32,29.68,29.55,10,3,17,0.21
2012-4-13,67.5,48.4,35.6,44.4,36.5,22.6,98,70,24,29.70,29.55,8,2,11,0.01
2012-4-14,68.2,50.9,33.8,43.3,32.7,21.9,92,57,22,29.79,29.61,12,3,20,0.00
2012-4-15,60.8,47.7,41.4,36.3,32.9,24.4,79,58,28,29.96,29.78,8,2,8,0.00
2012-4-16,49.1,43.8,35.2,46.8,40.6,32.9,98,88,69,29.93,29.88,7,1,8,0.27
2012-4-17,62.8,50.0,36.1,43.7,38.6,33.8,98,69,38,30.04,29.77,9,2,11,0.00
2012-4-18,63.1,48.4,40.1,47.6,42.3,38.5,96,81,48,29.90,29.80,8,2,13,0.15
2012-4-19,64.8,50.4,39.2,46.5,40.6,34.6,97,74,38,29.98,29.87,7,2,10,0.07
2012-4-20,63.9,54.2,47.7,54.5,49.5,46.2,97,85,58,29.99,29.91,8,2,13,0.07
2012-4-21,82.9,60.6,45.9,53.1,47.8,40.7,98,70,27,30.00,29.88,8,3,11,0.01
2012-4-22,91.9,65.5,44.4,56.9,46.6,32.4,90,60,17,29.93,29.68,8,3,11,0.00
2012-4-23,90.9,68.6,50.7,59.6,50.6,44.7,81,57,28,29.78,29.57,10,3,20,0.08
2012-4-24,82.2,65.5,54.5,59.4,55.0,47.9,96,73,35,29.75,29.62,9,3,18,0.11
2012-4-25,84.7,63.5,50.9,58.2,53.0,43.1,97,74,27,29.77,29.49,8,3,10,0.11
2012-4-26,58.6,51.7,42.8,55.0,48.6,36.7,96,89,76,29.80,29.31,13,2,17,0.46
2012-4-27,53.4,48.0,40.8,37.4,34.7,31.5,82,62,47,30.06,29.80,8,5,13,0.00
2012-4-28,53.4,53.4,53.4,35.1,35.1,35.1,51,51,51,30.09,29.96,8,8,9,0.00
2012-4-29,53.4,43.3,0.0,35.1,35.1,35.1,51,41,51,29.98,29.73,8,7,9,0.00
2012-4-30,64.9,18.5,0.0,64.7,43.6,35.1,99,28,99,29.94,29.53,2,0,2,0.00
2012-5-1,70.0,55.4,0.0,56.9,49.1,0.0,99,71,64,30.16,29.88,2,1,2,10.78
2012-5-2,0.0,0.0,0.0,0.0,0.0,0.0,0,0,100,29.98,29.98,0,0,0,0.00
2012-5-3,0.0,0.0,0.0,0.0,0.0,0.0,0,0,100,29.78,29.78,0,0,0,0.00
2012-5-5,47.8,41.0,36.5,35.1,32.3,30.7,81,71,60,30.43,30.40,5,2,5,0.00
2012-5-6,70.3,49.1,32.7,40.1,33.3,24.3,95,63,22,30.49,30.38,9,3,11,0.00
2012-5-7,76.6,54.8,36.0,41.7,34.0,13.4,94,56,13,30.43,30.20,7,3,11,0.00
2012-5-8,84.6,61.1,40.1,52.7,40.5,31.0,88,55,19,30.21,29.96,7,3,11,0.00
2012-5-9,70.3,58.9,47.3,47.1,33.0,11.6,82,43,17,30.16,29.97,12,5,19,0.00
2012-5-10,63.9,48.5,35.2,28.7,23.1,6.1,66,42,14,30.33,30.15,11,4,17,0.00
2012-5-11,70.5,49.7,29.7,34.8,24.2,4.1,89,49,11,30.35,30.19,10,3,12,0.00
2012-5-12,80.2,55.7,33.8,39.4,27.4,5.4,87,46,10,30.36,30.22,7,3,9,0.00
2012-5-13,89.2,62.6,39.6,41.6,33.1,12.5,82,45,10,30.32,30.12,7,3,10,0.00
2012-5-14,97.0,68.7,46.2,47.4,37.1,16.4,76,42,10,30.21,29.98,6,3,10,0.00
2012-5-15,89.8,68.3,48.4,55.5,45.1,38.8,78,49,21,30.06,29.89,9,3,11,0.00
2012-5-16,82.2,66.8,51.6,56.5,42.0,25.5,85,49,17,30.01,29.90,13,4,17,0.00
2012-5-17,72.0,61.5,49.8,43.8,39.1,31.3,65,47,27,29.96,29.85,9,3,17,0.00
2012-5-18,69.3,55.4,41.7,38.0,28.2,15.4,70,41,17,30.09,29.90,15,4,17,0.00
2012-5-19,77.2,57.8,38.8,39.3,30.5,9.4,81,45,13,30.13,30.04,9,3,12,0.00
2012-5-20,76.6,61.7,45.9,48.3,42.0,36.1,76,53,27,30.14,30.04,6,2,8,0.00
2012-5-21,69.3,60.3,54.1,61.1,52.4,45.2,97,77,59,30.06,29.87,7,2,13,0.41
2012-5-22,64.0,53.5,44.2,53.5,46.0,40.2,98,78,45,29.97,29.90,10,3,14,0.64
2012-5-23,61.9,49.7,43.5,45.8,43.1,41.1,95,80,49,29.99,29.91,6,2,9,0.71
2012-5-24,68.2,51.5,44.2,47.5,43.4,35.5,97,78,34,29.94,29.75,7,2,14,0.18
2012-5-25,67.8,55.7,43.5,41.4,34.2,28.0,81,49,27,29.86,29.76,13,4,20,0.18
2012-5-26,66.4,57.2,47.1,39.3,35.6,32.1,65,47,31,29.89,29.80,7,3,14,0.00
2012-5-27,60.4,52.9,46.2,51.0,45.7,36.1,91,77,55,30.04,29.88,6,2,10,0.07
2012-5-28,77.2,59.3,44.2,51.9,47.7,43.0,97,71,34,30.10,29.99,8,3,12,0.05
2012-5-29,67.5,55.7,47.7,51.7,46.9,41.5,95,74,51,30.12,29.99,11,2,15,0.09
2012-5-30,74.7,59.0,47.1,50.4,43.0,34.3,89,61,29,30.23,30.11,8,2,11,0.00
2012-5-31,64.2,55.9,46.8,58.4,50.6,42.6,96,83,62,30.21,30.08,6,2,51,0.06
2012-6-1,86.4,67.8,54.3,61.8,56.4,49.3,98,72,34,30.09,29.83,7,3,10,0.01
2012-6-2,74.8,61.2,53.4,58.4,54.3,46.4,97,81,41,29.95,29.81,7,2,10,0.32
2012-6-3,65.3,58.4,51.8,57.2,53.8,49.5,95,85,71,30.03,29.93,5,1,6,0.06
2012-6-4,78.6,62.7,52.0,63.3,55.9,50.3,98,81,49,29.97,29.53,15,4,23,0.39
2012-6-5,55.6,50.6,46.4,53.3,47.7,43.9,97,90,76,30.07,29.81,10,2,17,0.33
2012-6-6,68.2,52.9,44.1,46.3,41.7,34.7,97,71,34,30.13,30.03,10,3,14,0.24
2012-6-7,71.6,55.1,40.1,52.3,44.9,38.7,95,73,37,30.12,29.95,7,2,10,0.00
2012-6-8,62.6,51.5,44.2,49.1,45.3,40.5,97,81,52,30.01,29.94,7,2,11,0.18
2012-6-9,58.5,48.0,40.5,46.4,43.5,39.3,97,85,57,30.06,29.94,12,2,17,0.41
2012-6-10,68.2,54.2,46.4,51.3,47.7,45.0,98,81,52,30.24,30.05,8,2,10,0.13
2012-6-11,86.9,63.6,45.0,54.0,47.3,34.5,97,64,20,30.25,30.07,7,3,12,0.00
2012-6-12,80.8,63.2,50.2,61.9,53.1,46.2,96,73,39,30.13,29.94,7,2,11,0.31
2012-6-13,58.6,56.7,55.0,56.9,55.6,53.9,98,96,94,29.99,29.95,3,1,5,0.00
2012-6-16,87.3,73.5,62.8,53.2,49.8,43.3,69,49,27,30.09,29.90,5,2,7,0.00
2012-6-17,82.0,69.1,59.0,63.7,53.1,38.2,98,63,26,29.93,29.76,14,4,20,0.15
2012-6-18,68.7,58.2,52.7,53.8,48.3,43.5,87,71,46,29.96,29.80,11,3,14,0.11
2012-6-19,72.7,57.2,43.2,49.1,44.8,40.6,92,67,36,30.17,29.96,8,2,11,0.00
2012-6-20,88.3,63.6,42.6,54.1,46.4,36.4,98,62,21,30.25,30.00,8,3,14,0.00
2012-6-21,100.9,73.8,53.4,58.9,48.7,32.2,85,51,14,30.02,29.68,7,3,9,0.00
2012-6-22,88.3,71.9,61.2,62.9,56.4,49.3,81,61,41,29.80,29.60,13,5,23,0.00
2012-6-23,89.2,68.8,59.2,63.5,57.3,54.5,88,70,35,29.87,29.73,12,4,17,0.00
2012-6-24,83.7,68.4,57.4,59.9,53.8,50.8,89,63,40,29.98,29.84,10,4,17,0.00
2012-6-25,84.9,67.7,53.2,57.8,53.4,49.5,92,64,37,29.95,29.80,10,4,16,0.00
2012-6-26,68.0,55.9,46.8,57.4,50.9,46.5,99,85,59,30.11,29.75,13,4,21,0.65
2012-6-27,84.0,59.2,43.7,55.5,48.1,43.4,99,74,32,30.15,30.00,7,3,14,0.00
2012-6-28,93.2,67.0,48.9,66.0,54.9,48.1,97,72,32,30.04,29.86,12,3,14,0.00
2012-6-29,87.8,71.8,60.6,65.5,58.7,52.9,89,67,38,30.13,29.99,7,3,10,0.00
2012-6-30,90.9,70.9,57.2,70.4,62.2,56.9,99,78,43,30.04,29.85,13,3,18,0.09
2012-7-1,86.2,67.4,59.2,68.9,63.2,58.9,99,88,52,30.01,29.94,6,2,8,0.06
2012-7-2,93.0,71.4,59.2,70.5,61.8,58.9,99,77,39,30.01,29.75,6,2,9,0.00
2012-7-3,77.7,66.5,57.6,61.3,52.3,40.1,97,66,32,30.10,29.76,14,5,19,0.02
2012-7-4,85.8,66.3,57.6,54.9,48.7,40.6,76,58,25,30.11,29.94,7,2,11,0.00
2012-7-5,87.8,69.9,61.3,60.3,54.4,48.8,76,63,32,30.05,29.96,9,3,15,0.00
2012-7-6,100.6,74.6,63.7,69.2,58.4,48.7,83,63,24,30.13,30.00,7,3,8,0.00
2012-7-7,106.3,79.8,67.5,73.2,63.1,55.2,83,62,28,30.13,30.00,7,3,11,0.00
2012-7-8,106.3,71.3,0.0,69.8,55.3,0.0,66,45,20,30.12,29.88,8,2,11,0.00
2012-7-9,97.0,79.7,64.6,66.1,58.4,48.8,82,53,24,30.04,29.87,10,3,17,0.00
2012-7-10,99.5,82.1,68.5,65.5,57.6,44.4,71,48,26,30.01,29.83,12,4,20,0.00
2012-7-11,104.9,84.0,65.5,67.6,59.9,39.9,90,51,16,29.97,29.84,11,3,11,0.00
2012-7-12,106.5,81.2,62.2,65.5,56.7,26.6,91,53,10,29.91,29.71,11,3,11,0.00
2012-7-13,94.6,78.8,67.6,66.7,57.7,53.1,69,52,30,29.90,29.76,11,3,14,0.00
2012-7-14,89.6,76.4,66.0,64.3,60.1,55.5,83,60,37,29.90,29.79,16,3,26,0.00
2012-7-15,86.2,71.2,60.6,67.0,61.4,57.1,97,73,47,29.87,29.75,10,3,10,0.63
2012-7-16,83.7,69.2,56.3,65.5,57.2,48.3,86,68,48,29.88,29.75,14,3,14,0.00
2012-7-17,96.3,74.4,60.4,66.0,60.4,49.4,94,68,24,29.83,29.70,14,3,14,0.02
2012-7-18,97.3,75.7,59.7,68.1,62.7,57.3,96,69,31,29.89,29.80,15,3,15,0.00
2012-7-19,108.0,80.5,64.0,69.0,59.6,26.8,94,60,10,29.98,29.80,12,3,12,0.00
2012-7-20,93.4,74.8,63.0,67.5,60.8,52.4,92,64,36,30.11,29.84,19,4,27,0.21
2012-7-21,93.0,71.8,55.0,60.6,54.1,47.5,90,60,25,30.14,29.98,12,3,12,0.00
2012-7-22,99.3,74.8,56.7,61.5,53.5,40.5,94,56,19,30.00,29.79,14,4,18,0.00
2012-7-23,83.5,66.3,52.2,49.6,42.5,35.8,74,47,22,30.13,29.93,14,4,15,0.00
2012-7-24,91.8,67.4,46.9,53.3,45.2,33.8,91,55,17,30.06,29.89,10,3,11,0.00
2012-7-25,96.3,72.1,52.3,57.1,49.8,30.6,92,56,14,30.00,29.86,10,4,10,0.00
2012-7-26,100.0,74.6,56.3,63.3,55.5,40.9,90,58,17,29.93,29.77,8,3,8,0.00
2012-7-27,96.3,76.7,60.3,64.1,53.9,44.1,89,53,23,29.91,29.80,14,3,14,0.00
2012-7-28,94.6,73.1,56.5,49.8,40.3,17.8,71,39,10,30.03,29.91,12,4,17,0.00
2012-7-29,88.7,65.9,52.3,54.9,47.8,42.0,85,57,25,30.08,29.91,9,3,10,0.00
2012-7-30,96.6,72.4,55.4,55.9,45.4,23.0,85,48,11,29.99,29.90,15,3,15,0.00
2012-7-31,96.4,73.1,53.2,55.8,43.4,19.9,85,45,10,30.04,29.92,16,3,17,0.00
2012-8-1,96.6,72.6,52.3,54.2,40.2,19.0,84,42,10,30.08,29.94,16,3,17,0.00
2012-8-2,93.0,70.4,52.7,53.7,43.1,29.9,80,44,15,30.02,29.90,14,3,14,0.00
2012-8-3,92.7,72.5,55.2,55.4,40.8,23.0,83,41,12,30.04,29.93,14,4,15,0.00
2012-8-4,101.8,74.7,54.1,53.2,42.3,20.3,86,45,10,30.04,29.89,11,3,13,0.00
2012-8-5,105.6,77.9,56.1,58.3,45.9,25.2,83,44,10,29.99,29.86,11,3,13,0.00
2012-8-6,101.1,76.3,62.2,60.0,54.0,41.6,77,53,18,30.10,29.92,12,3,14,0.00
2012-8-7,109.4,82.3,61.0,62.7,52.6,29.2,87,49,10,30.05,29.82,11,3,11,0.00
2012-8-8,96.8,77.8,63.5,63.1,47.9,20.9,81,44,10,30.06,29.83,11,3,11,0.00
2012-8-9,104.5,76.1,54.5,58.0,43.0,21.5,87,42,10,30.09,29.89,11,3,11,0.00
2012-8-10,98.1,75.4,56.5,54.3,42.0,22.5,72,39,11,29.96,29.83,17,4,17,0.00
2012-8-11,101.1,74.9,53.8,53.3,39.2,18.9,77,39,10,30.03,29.91,10,4,11,0.00
2012-8-12,104.7,76.7,54.3,54.8,42.1,20.4,82,42,10,30.00,29.83,12,4,12,0.00
2012-8-13,105.1,77.2,55.9,54.7,42.0,22.4,76,41,10,29.97,29.83,11,3,11,0.00
2012-8-14,102.0,77.5,57.0,56.3,42.3,20.9,76,40,10,29.91,29.73,14,3,14,0.00
2012-8-15,96.4,79.6,62.2,53.4,48.9,41.3,67,40,19,29.92,29.78,12,3,14,0.00
2012-8-16,98.6,76.8,59.2,54.6,43.2,20.9,75,39,10,29.99,29.89,13,3,13,0.00
2012-8-17,102.2,76.5,55.6,56.9,40.3,20.0,83,39,10,30.05,29.91,12,3,12,0.00
2012-8-18,104.9,78.5,56.7,57.3,43.4,23.4,82,41,10,29.98,29.79,9,3,9,0.00
2012-8-19,104.7,80.8,61.7,56.7,43.9,23.3,72,36,10,29.92,29.77,11,3,11,0.00
2012-8-20,101.1,80.4,61.9,58.5,45.0,22.8,72,38,10,29.95,29.81,11,3,11,0.00
2012-8-21,95.2,77.1,63.3,56.8,49.7,39.9,74,45,19,29.88,29.77,17,3,17,0.00
2012-8-22,90.3,72.7,57.4,51.1,39.8,23.5,64,38,13,29.96,29.83,15,4,15,0.00
2012-8-23,88.5,75.8,60.4,48.4,31.5,12.7,52,25,10,29.94,29.82,16,4,16,0.00
2012-8-24,82.0,64.5,49.3,44.4,33.4,15.6,68,39,12,30.09,29.88,15,4,15,0.00
2012-8-25,93.4,77.0,59.4,41.6,27.3,13.1,45,23,10,29.94,29.75,10,4,13,0.00
2012-8-26,91.8,69.0,49.5,53.0,41.9,28.1,71,44,17,29.81,29.70,11,2,11,0.00
2012-8-27,94.1,74.0,57.2,53.6,38.9,27.6,62,34,13,30.00,29.76,16,4,16,0.00
2012-8-28,93.7,71.0,52.7,52.3,42.0,29.0,78,43,14,29.96,29.80,20,4,20,0.00
2012-8-29,84.6,68.2,55.9,44.2,38.7,27.2,57,39,16,30.07,29.91,14,4,16,0.00
2012-8-30,90.5,66.4,46.4,48.6,38.2,15.6,86,46,10,30.02,29.79,11,3,11,0.00
2012-8-31,93.9,69.1,49.6,47.6,37.0,16.7,76,42,10,29.83,29.71,15,3,15,0.00
2012-9-1,85.8,66.4,51.1,44.6,31.5,12.5,67,35,10,30.04,29.80,15,3,17,0.00
2012-9-2,85.3,62.4,43.5,42.3,28.9,9.9,76,39,10,30.10,29.98,14,3,14,0.00
2012-9-3,90.9,65.4,43.5,43.3,30.4,12.5,78,39,10,30.10,29.92,13,3,13,0.00
2012-9-4,88.7,66.8,47.1,44.4,33.3,14.2,72,38,10,30.14,30.00,12,3,12,0.00
2012-9-5,91.0,67.2,46.6,47.3,36.0,16.0,80,42,10,30.08,29.83,11,3,11,0.00
2012-9-6,86.4,67.5,51.4,48.0,40.4,31.0,72,43,18,30.06,29.86,18,4,18,0.00
2012-9-7,93.6,67.7,48.2,50.6,37.6,14.1,86,45,10,30.21,30.06,12,3,12,0.00
2012-9-8,99.7,70.4,46.4,47.8,38.5,20.8,84,44,10,30.16,29.84,10,3,11,0.00
2012-9-9,93.0,71.1,57.9,51.2,35.5,7.4,67,37,10,29.86,29.77,21,3,21,0.00
2012-9-10,78.8,61.5,47.7,47.9,37.4,25.8,79,46,19,30.04,29.85,17,4,19,0.00
2012-9-11,75.4,54.8,39.9,38.0,26.3,9.4,72,41,12,30.21,30.04,13,4,13,0.00
2012-9-12,81.3,55.5,36.0,37.1,25.1,6.8,85,44,10,30.36,30.19,14,3,14,0.00
2012-9-13,47.7,45.3,42.8,35.5,32.9,30.3,72,63,52,30.32,30.30,3,1,3,0.00
2012-9-21,88.3,73.9,64.8,48.1,42.0,34.7,44,36,20,30.00,29.88,8,2,9,0.00
2012-9-22,64.8,64.8,64.8,41.2,41.2,41.2,44,44,44,29.91,29.91,2,2,3,0.00
2012-9-23,64.8,64.3,52.7,41.2,41.2,39.7,63,45,44,30.05,29.91,2,2,3,0.00
2012-9-24,83.1,62.4,49.3,48.7,43.4,38.1,81,55,24,30.08,29.92,8,2,8,0.00
2012-9-25,84.2,65.3,52.9,52.6,47.0,40.4,80,56,25,29.98,29.90,14,2,14,0.00
2012-9-26,83.1,62.4,46.6,51.0,43.0,30.3,90,57,19,30.06,29.95,12,3,12,0.00
2012-9-27,87.4,62.6,44.4,47.2,40.9,32.5,88,53,18,30.08,29.92,9,2,9,0.00
2012-9-28,89.4,63.0,46.6,47.9,41.8,30.5,83,53,17,29.98,29.88,8,2,8,0.00
2012-9-29,86.7,65.7,50.0,50.7,44.7,39.1,81,53,23,30.09,29.94,13,3,13,0.00
2012-9-30,85.1,64.0,48.7,51.2,38.7,21.1,85,48,14,30.25,30.08,11,3,11,0.00
2012-10-1,87.3,61.5,42.8,43.0,32.8,12.3,80,44,10,30.27,29.94,10,2,10,0.00
2012-10-2,80.8,60.4,44.6,44.7,29.7,5.9,73,39,10,30.08,29.83,25,4,25,0.00
2012-10-3,70.7,49.7,33.1,28.9,20.2,13.8,57,36,17,30.35,30.08,11,3,11,0.00
2012-10-4,66.7,48.2,33.6,34.3,26.8,18.6,81,50,20,30.24,30.17,11,2,11,0.00
2012-10-5,70.9,48.4,31.3,32.4,21.1,0.9,83,44,10,30.32,30.20,11,3,11,0.00
2012-10-6,71.6,48.0,30.0,27.3,16.5,-0.3,75,39,10,30.32,30.14,8,2,10,0.00
2012-10-7,75.6,47.8,31.8,34.1,25.7,13.7,84,51,14,30.18,29.95,11,2,11,0.00
2012-10-8,75.7,51.8,34.5,37.8,28.4,13.0,88,50,13,29.98,29.86,8,2,8,0.00
2012-10-9,76.3,52.6,36.0,37.9,29.2,16.9,85,48,15,30.06,29.94,9,2,9,0.00
2012-10-10,79.5,54.2,36.7,39.2,32.9,22.8,89,53,16,30.00,29.83,9,2,9,0.00
2012-10-11,79.9,60.2,42.3,41.4,35.5,27.1,80,46,21,29.96,29.78,9,3,9,0.00
2012-10-12,72.7,53.7,38.1,45.8,37.8,29.8,90,60,28,29.92,29.78,9,2,11,0.00
2012-10-13,67.3,54.4,48.6,56.9,50.8,44.6,97,88,67,30.17,29.91,7,1,7,0.27
2012-10-14,70.3,57.8,49.1,55.8,52.3,48.6,98,83,57,30.17,29.92,6,1,6,0.02
2012-10-15,74.3,58.6,53.2,61.2,55.1,52.4,99,89,56,29.96,29.65,7,1,8,0.46
2012-10-16,62.1,55.4,45.0,56.9,42.5,29.3,99,66,34,30.07,29.52,30,7,30,0.34
2012-10-17,64.9,47.8,37.4,41.9,34.8,30.2,85,65,31,30.25,30.06,13,2,13,0.00
2012-10-18,67.3,46.9,32.0,41.2,36.0,30.7,96,70,32,30.26,29.88,8,2,9,0.00
2012-10-19,54.9,49.6,44.4,49.4,45.2,38.6,95,85,74,29.92,29.66,8,1,8,0.11
2012-10-20,60.8,48.9,35.2,49.7,37.0,24.1,97,68,29,29.86,29.66,24,4,24,0.17
2012-10-21,59.9,42.3,31.3,38.1,32.0,25.8,96,71,30,29.91,29.78,9,2,9,0.00
2012-10-22,41.9,36.0,30.0,38.1,33.4,28.5,97,91,74,29.79,29.49,8,1,8,0.08
2012-10-23,43.7,35.6,32.2,41.1,34.8,31.4,99,97,85,29.94,29.69,5,1,6,0.07
2012-10-24,49.8,38.7,32.4,39.3,35.3,32.1,99,89,65,30.07,29.93,9,2,9,0.02
2012-10-25,45.1,39.0,35.1,41.6,36.4,33.2,98,91,73,30.38,30.06,8,1,8,0.02
2012-10-26,40.6,36.1,32.7,36.6,34.5,31.7,98,94,83,30.38,30.06,4,1,4,0.26
2012-10-27,43.2,40.0,36.7,41.8,39.2,36.2,99,97,91,30.07,29.87,5,1,5,0.32
2012-10-28,50.0,45.8,42.3,49.7,45.2,41.5,99,98,94,29.94,29.86,8,1,8,0.53
2012-10-29,67.3,53.1,48.2,59.0,51.6,47.7,99,95,70,30.04,29.83,8,1,8,0.46
2012-10-30,57.0,50.4,46.8,52.7,49.3,46.5,99,96,83,30.04,29.88,5,1,5,0.01
2012-10-31,62.4,52.8,47.7,54.3,49.9,46.2,99,90,72,29.88,29.70,14,2,14,0.01
2012-11-1,63.1,49.4,44.1,52.3,46.5,43.0,98,90,57,30.02,29.80,11,1,11,0.33
2012-11-2,62.6,50.0,44.2,52.8,47.2,43.4,99,91,69,30.09,30.01,10,1,10,0.02
2012-11-3,50.7,46.6,43.0,47.5,45.2,42.5,99,95,87,30.17,30.02,4,1,4,0.00
2012-11-4,56.7,49.8,44.4,51.7,47.8,43.9,99,93,81,30.30,30.17,6,1,6,0.00
2012-11-5,64.6,51.8,45.1,54.8,49.4,44.9,99,92,68,30.28,30.16,5,1,5,0.00
2012-11-6,64.6,52.0,46.8,54.2,49.0,46.2,99,91,67,30.17,29.86,8,2,9,0.01
2012-11-7,55.2,45.3,33.4,50.3,41.1,32.7,99,86,58,30.01,29.86,15,2,15,0.31
2012-11-8,37.2,34.6,33.1,36.2,34.0,32.6,99,98,96,29.91,29.63,5,1,6,0.17
2012-11-9,39.6,33.5,29.5,38.1,32.5,28.7,99,96,85,29.81,29.70,4,0,4,0.13
2012-11-10,40.5,30.9,25.0,32.8,28.2,22.0,99,90,67,30.13,29.80,6,0,9,0.00
2012-11-11,41.0,32.1,25.5,34.3,27.0,23.3,94,82,64,30.28,30.13,6,1,6,0.01
2012-11-12,36.9,34.1,31.6,36.1,31.8,26.2,99,91,79,30.27,30.17,4,1,4,0.09
2012-11-13,43.0,37.6,33.3,40.1,36.5,32.8,99,96,88,30.24,30.12,7,1,7,0.05
2012-11-14,42.3,39.8,36.7,41.6,39.4,36.2,99,98,97,30.27,30.13,3,0,3,0.17
2012-11-15,54.1,41.2,33.6,42.3,37.7,32.8,99,89,59,30.26,29.97,11,2,14,0.00
2012-11-16,56.3,41.2,34.0,43.4,37.8,33.2,98,89,62,29.98,29.88,9,1,9,0.01
2012-11-17,51.4,42.6,37.8,44.4,40.4,37.3,99,92,74,29.92,29.57,17,2,17,0.28
2012-11-18,52.5,38.6,32.2,42.5,36.1,31.7,99,91,65,29.93,29.73,14,2,14,0.14
2012-11-19,55.9,47.8,36.3,42.4,38.9,34.5,99,74,52,29.90,29.74,24,6,24,0.25
2012-11-20,59.0,50.8,44.2,47.8,44.1,41.3,96,79,60,29.83,29.68,15,2,15,0.01
2012-11-21,56.3,44.4,34.7,48.0,37.0,25.1,97,78,35,30.17,29.63,14,2,14,0.31
2012-11-22,52.2,37.7,30.2,36.4,30.1,26.9,93,76,44,30.40,30.17,9,2,9,0.00
2012-11-23,40.8,35.7,29.3,36.4,32.6,28.1,96,89,77,30.34,30.08,6,1,6,0.04
2012-11-24,48.6,40.3,36.7,46.5,39.7,35.7,99,98,91,30.13,30.03,5,0,5,0.52
2012-11-25,49.6,34.6,28.2,39.1,32.3,27.2,99,92,59,30.26,30.04,6,1,6,0.01
2012-11-26,45.5,32.3,26.2,33.1,28.3,25.5,98,86,59,30.26,30.12,9,1,9,0.00
2012-11-27,44.6,32.7,25.7,33.9,29.2,24.7,98,88,64,30.19,30.04,8,1,8,0.01
2012-11-28,38.8,35.7,30.0,36.7,33.8,29.0,99,93,85,30.06,29.77,7,1,7,0.08
2012-11-29,44.8,39.8,34.7,44.3,39.2,34.5,99,98,92,29.87,29.63,5,1,5,0.00
2012-11-30,49.8,44.6,41.9,48.4,43.8,41.6,99,97,91,29.66,29.55,5,1,6,0.18
2012-12-1,56.3,43.9,40.3,53.9,42.7,39.9,99,96,72,29.74,29.51,8,1,8,0.32
2012-12-2,55.0,42.1,35.8,43.1,38.1,32.0,99,87,47,29.87,29.23,17,2,17,0.19
2012-12-3,53.4,42.7,36.1,45.6,36.3,32.1,95,79,61,30.06,29.87,8,1,8,0.01
2012-12-4,47.7,42.5,37.6,44.9,40.4,33.5,98,92,81,29.93,29.76,8,1,8,0.24
2012-12-5,53.2,42.2,32.5,45.1,35.0,28.7,98,78,45,30.13,29.75,20,3,20,0.21
2012-12-6,36.5,33.7,32.2,34.8,32.3,29.3,99,94,87,30.12,29.96,4,0,6,0.20
2012-12-7,39.0,34.5,30.9,36.8,32.9,24.0,99,94,71,30.00,29.74,13,2,14,0.17
2012-12-8,40.5,29.1,23.9,31.5,24.7,21.7,93,84,65,30.23,29.91,6,1,11,0.05
2012-12-9,33.6,27.9,22.5,30.0,24.1,20.8,96,86,72,30.34,30.14,9,1,9,0.00
2012-12-10,39.7,32.4,28.4,37.1,31.6,27.4,99,97,86,30.20,30.01,2,0,2,0.11
2012-12-11,36.3,34.0,31.3,36.1,33.7,31.0,99,99,99,30.02,29.55,8,0,8,0.02
2012-12-12,34.3,34.1,33.8,34.1,33.8,33.6,99,99,99,29.57,29.55,2,0,2,0.01
2012-12-28,29.7,28.4,27.3,28.9,27.4,25.9,98,96,93,30.13,30.11,2,1,2,0.06
2012-12-29,39.4,28.5,21.0,30.9,25.9,18.6,98,90,67,30.13,30.02,6,1,6,0.01
2012-12-30,29.7,26.0,20.7,26.8,23.7,18.0,95,91,83,30.22,30.08,6,1,6,0.00
2012-12-31,34.0,25.8,19.9,25.7,22.3,17.5,93,87,69,30.35,30.21,4,1,4,0.00
2013-1-1,28.8,25.3,21.6,24.8,22.0,19.4,93,87,78,30.48,30.34,3,0,3,0.00